createdAt,value
2022-08-07T00:00:26.181Z,22.30
2022-08-07T00:02:53.815Z,22.20
2022-08-07T00:05:23.597Z,22.10
2022-08-07T00:07:59.669Z,22.10
2022-08-07T00:10:29.679Z,22.20
2022-08-07T00:13:01.437Z,22.30
2022-08-07T00:15:38.060Z,22.10
2022-08-07T00:18:20.132Z,22.10
2022-08-07T00:20:51.395Z,22.20
2022-08-07T00:23:21.233Z,22.30
2022-08-07T00:25:52.489Z,22.20
2022-08-07T00:28:33.450Z,22.20
2022-08-07T00:31:12.473Z,22.20
2022-08-07T00:33:43.299Z,22.20
2022-08-07T00:36:14.549Z,22.20
2022-08-07T00:38:43.817Z,22.40
2022-08-07T00:41:14.897Z,22.40
2022-08-07T00:44:01.780Z,22.30
2022-08-07T00:46:30.925Z,22.20
2022-08-07T00:49:02.722Z,22.20
2022-08-07T00:51:56.460Z,22.60
2022-08-07T00:54:19.927Z,22.30
2022-08-07T00:56:49.876Z,22.20
2022-08-07T00:59:20.103Z,22.00
2022-08-07T01:01:48.576Z,21.70
2022-08-07T01:04:24.523Z,21.70
2022-08-07T01:06:52.082Z,21.60
2022-08-07T01:10:03.998Z,21.10
2022-08-07T01:12:28.598Z,20.90
2022-08-07T01:15:01.508Z,21.20
2022-08-07T01:17:32.481Z,21.20
2022-08-07T01:20:17.084Z,21.10
2022-08-07T01:22:54.085Z,21.10
2022-08-07T01:25:55.176Z,21.00
2022-08-07T01:28:22.340Z,21.60
2022-08-07T01:30:54.026Z,21.20
2022-08-07T01:33:23.314Z,21.30
2022-08-07T01:35:53.409Z,21.30
2022-08-07T01:38:25.138Z,21.30
2022-08-07T01:41:00.521Z,21.20
2022-08-07T01:43:34.779Z,21.00
2022-08-07T01:46:08.392Z,21.20
2022-08-07T01:48:46.629Z,21.50
2022-08-07T01:52:01.213Z,21.50
2022-08-07T01:54:19.289Z,21.50
2022-08-07T01:57:00.359Z,21.60
2022-08-07T01:59:33.989Z,21.60
2022-08-07T02:02:10.370Z,21.60
2022-08-07T02:04:57.483Z,21.30
2022-08-07T02:07:36.207Z,21.30
2022-08-07T02:10:22.889Z,21.20
2022-08-07T02:12:50.951Z,21.20
2022-08-07T02:15:28.005Z,21.20
2022-08-07T02:17:57.370Z,21.10
2022-08-07T02:20:29.671Z,21.10
2022-08-07T02:23:06.023Z,21.30
2022-08-07T02:26:26.593Z,21.30
2022-08-07T02:28:28.713Z,21.40
2022-08-07T02:31:10.332Z,21.40
2022-08-07T02:34:03.461Z,21.70
2022-08-07T02:36:42.504Z,21.60
2022-08-07T02:39:43.667Z,21.60
2022-08-07T02:42:10.170Z,21.50
2022-08-07T02:44:48.390Z,21.30
2022-08-07T02:47:23.794Z,21.40
2022-08-07T02:49:59.707Z,21.50
2022-08-07T02:52:52.064Z,21.50
2022-08-07T02:55:27.592Z,21.70
2022-08-07T02:57:59.143Z,21.50
2022-08-07T03:00:30.422Z,21.50
2022-08-07T03:02:59.995Z,21.30
2022-08-07T03:05:37.836Z,21.50
2022-08-07T03:08:10.437Z,21.60
2022-08-07T03:10:46.751Z,21.80
2022-08-07T03:13:19.793Z,21.70
2022-08-07T03:15:58.407Z,21.80
2022-08-07T03:18:35.097Z,21.90
2022-08-07T03:21:08.622Z,21.70
2022-08-07T03:24:20.859Z,21.50
2022-08-07T03:26:31.912Z,21.50
2022-08-07T03:29:03.462Z,21.40
2022-08-07T03:31:43.092Z,21.30
2022-08-07T03:34:18.349Z,21.30
2022-08-07T03:36:50.686Z,21.20
2022-08-07T03:39:59.281Z,21.30
2022-08-07T03:42:07.809Z,21.30
2022-08-07T03:44:38.361Z,21.40
2022-08-07T03:47:10.786Z,21.40
2022-08-07T03:49:51.954Z,21.40
2022-08-07T03:52:26.379Z,21.40
2022-08-07T03:55:07.034Z,21.30
2022-08-07T03:58:34.730Z,21.40
2022-08-07T04:00:33.825Z,21.50
2022-08-07T04:03:03.871Z,21.50
2022-08-07T04:05:40.188Z,21.50
2022-08-07T04:08:16.256Z,21.40
2022-08-07T04:10:54.145Z,21.30
2022-08-07T04:14:10.952Z,21.30
2022-08-07T04:16:31.028Z,21.20
2022-08-07T04:19:04.271Z,21.50
2022-08-07T04:21:59.603Z,21.40
2022-08-07T04:24:39.175Z,21.50
2022-08-07T04:27:20.463Z,21.40
2022-08-07T04:30:01.148Z,21.50
2022-08-07T04:32:39.809Z,21.50
2022-08-07T04:35:13.743Z,21.40
2022-08-07T04:38:03.470Z,21.60
2022-08-07T04:40:31.293Z,21.70
2022-08-07T04:43:01.591Z,21.80
2022-08-07T04:45:57.447Z,21.90
2022-08-07T04:48:45.964Z,21.80
2022-08-07T04:51:29.055Z,21.90
2022-08-07T04:54:30.218Z,22.00
2022-08-07T04:58:12.325Z,22.10
2022-08-07T05:00:14.184Z,22.20
2022-08-07T05:02:53.495Z,22.10
2022-08-07T05:05:53.648Z,22.20
2022-08-07T05:08:59.307Z,22.10
2022-08-07T05:11:26.178Z,22.10
2022-08-07T05:14:53.188Z,22.00
2022-08-07T05:17:05.747Z,22.30
2022-08-07T05:19:45.038Z,21.80
2022-08-07T05:22:26.661Z,21.70
2022-08-07T05:24:59.740Z,21.60
2022-08-07T05:28:02.553Z,21.30
2022-08-07T05:30:29.913Z,21.30
2022-08-07T05:33:03.989Z,21.30
2022-08-07T05:35:42.043Z,21.30
2022-08-07T05:38:11.380Z,21.20
2022-08-07T05:40:50.408Z,21.10
2022-08-07T05:44:01.171Z,21.10
2022-08-07T05:46:07.217Z,21.20
2022-08-07T05:48:34.453Z,21.40
2022-08-07T05:51:03.876Z,21.50
2022-08-07T05:54:09.487Z,21.40
2022-08-07T05:56:30.053Z,21.50
2022-08-07T05:59:01.883Z,21.10
2022-08-07T06:01:35.863Z,20.90
2022-08-07T06:04:05.389Z,20.90
2022-08-07T06:06:37.428Z,20.80
2022-08-07T06:09:15.486Z,21.20
2022-08-07T06:11:45.706Z,21.00
2022-08-07T06:14:21.206Z,21.00
2022-08-07T06:16:56.014Z,21.10
2022-08-07T06:19:57.674Z,20.80
2022-08-07T06:22:23.384Z,20.60
2022-08-07T06:25:02.874Z,20.70
2022-08-07T06:28:00.391Z,20.60
2022-08-07T06:30:32.257Z,20.80
2022-08-07T06:33:15.948Z,20.70
2022-08-07T06:35:49.228Z,20.90
2022-08-07T06:38:32.963Z,20.80
2022-08-07T06:41:07.418Z,20.90
2022-08-07T06:43:46.189Z,20.90
2022-08-07T06:46:31.094Z,21.10
2022-08-07T06:49:00.169Z,21.20
2022-08-07T06:51:35.979Z,20.80
2022-08-07T06:55:34.246Z,20.50
2022-08-07T06:57:09.230Z,20.60
2022-08-07T07:00:14.548Z,20.40
2022-08-07T07:02:53.741Z,20.40
2022-08-07T07:06:05.408Z,20.20
2022-08-07T07:08:18.789Z,20.20
2022-08-07T07:10:56.944Z,20.30
2022-08-07T07:13:56.613Z,20.20
2022-08-07T07:16:30.517Z,20.30
2022-08-07T07:19:54.526Z,20.30
2022-08-07T07:22:04.834Z,20.40
2022-08-07T07:25:02.368Z,20.70
2022-08-07T07:27:35.787Z,21.00
2022-08-07T07:30:37.931Z,20.90
2022-08-07T07:33:06.613Z,21.00
2022-08-07T07:35:44.145Z,20.80
2022-08-07T07:38:27.337Z,20.60
2022-08-07T07:41:02.590Z,20.50
2022-08-07T07:44:14.274Z,20.70
2022-08-07T07:46:36.990Z,20.90
2022-08-07T07:50:34.881Z,21.10
2022-08-07T07:52:00.299Z,21.30
2022-08-07T07:54:29.584Z,21.50
2022-08-07T07:56:58.075Z,21.40
2022-08-07T07:59:52.869Z,21.60
2022-08-07T08:02:22.749Z,21.60
2022-08-07T08:05:05.330Z,21.60
2022-08-07T08:07:59.804Z,21.70
2022-08-07T08:10:37.699Z,22.00
2022-08-07T08:13:07.360Z,22.10
2022-08-07T08:15:43.599Z,22.30
2022-08-07T08:18:28.233Z,22.30
2022-08-07T08:20:58.571Z,22.50
2022-08-07T08:23:46.831Z,22.30
2022-08-07T08:26:34.072Z,22.10
2022-08-07T08:29:04.136Z,22.10
2022-08-07T08:32:18.132Z,22.30
2022-08-07T08:34:35.660Z,22.20
2022-08-07T08:37:09.933Z,22.50
2022-08-07T08:39:55.002Z,22.40
2022-08-07T08:42:43.239Z,22.50
2022-08-07T08:45:13.981Z,22.50
2022-08-07T08:47:58.906Z,22.40
2022-08-07T08:50:39.621Z,22.50
2022-08-07T08:53:19.701Z,22.40
2022-08-07T08:56:10.146Z,22.50
2022-08-07T08:59:08.652Z,22.60
2022-08-07T09:01:59.765Z,22.80
2022-08-07T09:04:37.395Z,22.90
2022-08-07T09:07:26.111Z,23.20
2022-08-07T09:10:25.309Z,23.30
2022-08-07T09:13:15.074Z,23.60
2022-08-07T09:16:23.251Z,23.80
2022-08-07T09:18:41.461Z,23.60
2022-08-07T09:22:09.929Z,23.70
2022-08-07T09:24:58.904Z,23.60
2022-08-07T09:28:00.413Z,23.50
2022-08-07T09:30:44.137Z,23.60
2022-08-07T09:33:40.769Z,24.00
2022-08-07T09:36:43.281Z,24.00
2022-08-07T09:39:53.590Z,24.10
2022-08-07T09:42:24.896Z,24.60
2022-08-07T09:47:25.246Z,24.70
2022-08-07T09:48:12.267Z,24.70
2022-08-07T09:50:51.478Z,25.00
2022-08-07T09:53:23.304Z,25.30
2022-08-07T09:56:04.658Z,25.30
2022-08-07T09:58:54.313Z,25.50
2022-08-07T10:01:51.671Z,25.30
2022-08-07T10:04:45.977Z,25.40
2022-08-07T10:07:52.861Z,25.40
2022-08-07T10:14:02.008Z,24.90
2022-08-07T10:16:35.428Z,25.20
2022-08-07T10:19:38.427Z,25.30
2022-08-07T10:22:17.524Z,25.50
2022-08-07T10:25:24.235Z,25.70
2022-08-07T10:28:27.779Z,25.70
2022-08-07T10:31:15.101Z,26.00
2022-08-07T10:34:06.143Z,26.20
2022-08-07T10:37:26.463Z,26.40
2022-08-07T10:40:34.183Z,26.60
2022-08-07T10:43:21.261Z,27.00
2022-08-07T10:46:13.027Z,27.10
2022-08-07T10:49:45.277Z,27.40
2022-08-07T10:52:18.746Z,27.50
2022-08-07T10:55:02.022Z,28.00
2022-08-07T10:58:08.732Z,27.80
2022-08-07T11:00:50.465Z,28.20
2022-08-07T11:03:52.722Z,28.20
2022-08-07T11:06:40.260Z,28.60
2022-08-07T11:10:07.209Z,28.60
2022-08-07T11:12:37.990Z,28.60
2022-08-07T11:15:17.367Z,29.00
2022-08-07T11:18:03.698Z,28.90
2022-08-07T11:20:46.464Z,28.90
2022-08-07T11:23:26.353Z,29.00
2022-08-07T11:26:18.921Z,28.80
2022-08-07T11:28:55.305Z,28.80
2022-08-07T11:31:38.513Z,29.00
2022-08-07T11:34:22.083Z,29.00
2022-08-07T11:37:13.440Z,29.30
2022-08-07T11:40:10.775Z,29.50
2022-08-07T11:42:51.934Z,30.20
2022-08-07T11:45:53.595Z,31.10
2022-08-07T11:48:29.993Z,31.00
2022-08-07T11:51:45.037Z,30.60
2022-08-07T11:54:25.362Z,30.70
2022-08-07T11:57:14.280Z,30.80
2022-08-07T12:00:19.320Z,31.10
2022-08-07T12:03:44.633Z,31.10
2022-08-07T12:06:37.980Z,30.50
2022-08-07T12:09:24.623Z,30.00
2022-08-07T12:12:09.798Z,29.90
2022-08-07T12:15:01.942Z,29.80
2022-08-07T12:17:59.184Z,29.90
2022-08-07T12:20:49.148Z,30.60
2022-08-07T12:24:07.634Z,30.40
2022-08-07T12:26:35.402Z,30.30
2022-08-07T12:29:40.330Z,30.60
2022-08-07T12:32:21.017Z,31.00
2022-08-07T12:34:55.864Z,31.10
2022-08-07T12:37:27.950Z,31.30
2022-08-07T12:40:44.956Z,31.50
2022-08-07T12:43:09.683Z,31.80
2022-08-07T12:46:26.256Z,31.90
2022-08-07T12:49:25.762Z,31.60
2022-08-07T12:52:13.808Z,31.50
2022-08-07T12:55:09.874Z,31.60
2022-08-07T12:58:00.199Z,31.50
2022-08-07T13:00:54.988Z,30.90
2022-08-07T13:04:04.733Z,31.00
2022-08-07T13:07:09.145Z,31.40
2022-08-07T13:10:38.193Z,31.40
2022-08-07T13:13:47.235Z,30.90
2022-08-07T13:16:27.168Z,30.80
2022-08-07T13:19:18.036Z,31.00
2022-08-07T13:22:12.366Z,31.40
2022-08-07T13:25:08.082Z,31.00
2022-08-07T13:28:11.559Z,31.00
2022-08-07T13:30:43.492Z,30.90
2022-08-07T13:34:31.956Z,30.80
2022-08-07T13:36:35.353Z,30.80
2022-08-07T13:40:33.764Z,31.10
2022-08-07T13:42:21.532Z,31.20
2022-08-07T13:45:11.725Z,31.20
2022-08-07T13:48:05.256Z,31.20
2022-08-07T13:50:34.121Z,31.30
2022-08-07T13:53:05.292Z,31.30
2022-08-07T13:55:34.024Z,31.20
2022-08-07T13:58:31.664Z,31.10
2022-08-07T14:00:59.966Z,31.30
2022-08-07T14:04:07.754Z,31.20
2022-08-07T14:06:36.955Z,31.30
2022-08-07T14:09:07.185Z,31.10
2022-08-07T14:11:53.920Z,31.10
2022-08-07T14:14:33.449Z,31.00
2022-08-07T14:17:32.205Z,31.00
2022-08-07T14:20:39.813Z,30.80
2022-08-07T14:23:03.216Z,30.40
2022-08-07T14:25:39.372Z,30.50
2022-08-07T14:28:13.389Z,30.60
2022-08-07T14:30:52.300Z,30.80
2022-08-07T14:33:22.218Z,30.80
2022-08-07T14:35:55.597Z,30.70
2022-08-07T14:38:30.966Z,30.60
2022-08-07T14:41:06.300Z,30.50
2022-08-07T14:43:57.526Z,30.60
2022-08-07T14:46:31.493Z,30.60
2022-08-07T14:49:55.947Z,30.60
2022-08-07T14:52:03.800Z,30.60
2022-08-07T14:54:35.915Z,30.60
2022-08-07T14:57:15.046Z,30.60
2022-08-07T15:00:03.358Z,30.50
2022-08-07T15:02:34.472Z,30.30
2022-08-07T15:05:03.536Z,30.60
2022-08-07T15:07:47.675Z,30.60
2022-08-07T15:10:26.084Z,30.50
2022-08-07T15:12:58.310Z,30.60
2022-08-07T15:15:38.965Z,30.50
2022-08-07T15:18:14.267Z,30.40
2022-08-07T15:21:08.070Z,30.30
2022-08-07T15:25:13.161Z,30.20
2022-08-07T15:26:36.388Z,30.20
2022-08-07T15:30:09.030Z,30.10
2022-08-07T15:31:57.588Z,30.20
2022-08-07T15:34:33.465Z,30.30
2022-08-07T15:39:59.007Z,30.20
2022-08-07T15:42:46.331Z,30.50
2022-08-07T15:45:55.489Z,30.40
2022-08-07T15:48:13.054Z,30.30
2022-08-07T15:53:52.123Z,30.20
2022-08-07T15:56:29.496Z,30.20
2022-08-07T15:59:05.707Z,30.00
2022-08-07T16:01:38.431Z,29.70
2022-08-07T16:04:15.362Z,29.70
2022-08-07T16:06:50.502Z,29.70
2022-08-07T16:09:22.702Z,29.70
2022-08-07T16:12:12.176Z,29.70
2022-08-07T16:15:10.049Z,29.60
2022-08-07T16:18:49.744Z,29.60
2022-08-07T16:22:04.275Z,29.60
2022-08-07T16:24:52.659Z,29.40
2022-08-07T16:27:25.950Z,29.40
2022-08-07T16:30:30.411Z,29.10
2022-08-07T16:34:01.508Z,29.10
2022-08-07T16:38:02.500Z,29.00
2022-08-07T16:39:49.155Z,28.90
2022-08-07T16:43:02.148Z,28.80
2022-08-07T16:46:33.664Z,28.70
2022-08-07T16:50:20.777Z,28.70
2022-08-07T16:52:51.051Z,28.70
2022-08-07T16:55:47.070Z,28.70
2022-08-07T16:58:54.277Z,28.70
2022-08-07T17:01:42.386Z,28.50
2022-08-07T17:04:29.987Z,28.50
2022-08-07T17:07:14.655Z,28.40
2022-08-07T17:10:08.283Z,28.30
2022-08-07T17:12:53.981Z,28.30
2022-08-07T17:15:50.905Z,28.40
2022-08-07T17:18:38.605Z,28.40
2022-08-07T17:21:18.851Z,28.40
2022-08-07T17:23:54.470Z,28.50
2022-08-07T17:26:50.109Z,28.40
2022-08-07T17:30:15.562Z,28.20
2022-08-07T17:32:51.845Z,28.10
2022-08-07T17:35:50.146Z,28.00
2022-08-07T17:38:50.978Z,27.80
2022-08-07T17:42:02.897Z,27.70
2022-08-07T17:44:33.813Z,27.60
2022-08-07T17:47:38.369Z,27.50
2022-08-07T17:50:30.294Z,27.50
2022-08-07T17:53:06.068Z,27.40
2022-08-07T17:56:00.976Z,27.30
2022-08-07T17:58:46.301Z,27.30
2022-08-07T18:01:37.214Z,27.30
2022-08-07T18:04:30.888Z,27.30
2022-08-07T18:07:20.321Z,27.20
2022-08-07T18:10:07.282Z,27.20
2022-08-07T18:12:42.287Z,27.10
2022-08-07T18:15:35.625Z,26.80
2022-08-07T18:19:02.593Z,26.50
2022-08-07T18:21:38.380Z,26.20
2022-08-07T18:24:07.758Z,26.00
2022-08-07T18:26:52.169Z,25.70
2022-08-07T18:30:05.225Z,25.60
2022-08-07T18:33:11.956Z,25.60
2022-08-07T18:36:09.396Z,25.50
2022-08-07T18:38:56.909Z,25.60
2022-08-07T18:41:54.127Z,25.70
2022-08-07T18:45:43.006Z,25.50
2022-08-07T18:48:10.100Z,25.30
2022-08-07T18:51:05.338Z,25.30
2022-08-07T18:54:27.574Z,25.20
2022-08-07T18:57:29.784Z,25.10
2022-08-07T19:00:33.046Z,25.30
2022-08-07T19:02:58.536Z,25.30
2022-08-07T19:06:03.557Z,24.90
2022-08-07T19:08:49.663Z,24.70
2022-08-07T19:11:36.210Z,24.70
2022-08-07T19:14:51.152Z,24.90
2022-08-07T19:17:58.890Z,25.00
2022-08-07T19:20:28.799Z,24.90
2022-08-07T19:23:18.788Z,25.00
2022-08-07T19:26:23.163Z,24.90
2022-08-07T19:30:55.403Z,24.70
2022-08-07T19:32:09.700Z,24.60
2022-08-07T19:34:34.441Z,24.50
2022-08-07T19:37:17.103Z,24.40
2022-08-07T19:39:57.895Z,24.30
2022-08-07T19:42:31.683Z,24.30
2022-08-07T19:45:12.667Z,24.30
2022-08-07T19:48:00.344Z,24.30
2022-08-07T19:50:43.686Z,24.30
2022-08-07T19:54:35.068Z,24.30
2022-08-07T19:58:01.693Z,24.40
2022-08-07T19:59:00.399Z,24.30
2022-08-07T20:01:52.888Z,24.30
2022-08-07T20:04:31.608Z,24.30
2022-08-07T20:07:00.510Z,24.30
2022-08-07T20:09:46.414Z,24.00
2022-08-07T20:12:31.438Z,24.00
2022-08-07T20:15:03.604Z,24.00
2022-08-07T20:17:35.961Z,23.80
2022-08-07T20:20:08.524Z,23.80
2022-08-07T20:22:41.403Z,23.90
2022-08-07T20:25:12.885Z,23.90
2022-08-07T20:27:58.139Z,24.00
2022-08-07T20:30:31.950Z,23.90
2022-08-07T20:33:01.211Z,23.80
2022-08-07T20:35:51.928Z,23.80
2022-08-07T20:38:24.691Z,23.70
2022-08-07T20:40:56.331Z,23.70
2022-08-07T20:43:28.150Z,23.70
2022-08-07T20:46:28.047Z,23.70
2022-08-07T20:49:00.730Z,23.80
2022-08-07T20:51:36.071Z,23.70
2022-08-07T20:54:11.800Z,23.70
2022-08-07T20:56:46.263Z,23.50
2022-08-07T21:00:04.143Z,23.50
2022-08-07T21:02:32.724Z,23.60
2022-08-07T21:05:00.737Z,23.50
2022-08-07T21:07:33.149Z,23.50
2022-08-07T21:10:03.357Z,23.50
2022-08-07T21:12:34.768Z,23.40
2022-08-07T21:15:07.020Z,23.30
2022-08-07T21:18:03.310Z,23.30
2022-08-07T21:20:30.481Z,23.30
2022-08-07T21:23:08.155Z,23.50
2022-08-07T21:25:56.357Z,23.40
2022-08-07T21:28:48.213Z,23.40
2022-08-07T21:32:48.047Z,23.40
2022-08-07T21:34:48.573Z,23.30
2022-08-07T21:37:23.959Z,23.20
2022-08-07T21:40:04.670Z,23.20
2022-08-07T21:42:46.573Z,23.30
2022-08-07T21:46:04.856Z,23.30
2022-08-07T21:48:42.514Z,23.20
2022-08-07T21:51:34.742Z,23.20
2022-08-07T21:54:33.865Z,23.20
2022-08-07T21:57:39.947Z,23.20
2022-08-07T22:00:22.750Z,23.10
2022-08-07T22:03:17.442Z,22.90
2022-08-07T22:06:29.985Z,22.90
2022-08-07T22:09:06.936Z,23.00
2022-08-07T22:12:05.050Z,23.00
2022-08-07T22:14:36.128Z,22.80
2022-08-07T22:17:07.571Z,22.80
2022-08-07T22:19:53.957Z,22.80
2022-08-07T22:22:33.099Z,22.80
2022-08-07T22:25:11.138Z,23.00
2022-08-07T22:28:07.947Z,23.00
2022-08-07T22:31:56.198Z,23.10
2022-08-07T22:34:12.974Z,23.00
2022-08-07T22:37:09.279Z,22.80
2022-08-07T22:40:19.518Z,22.90
2022-08-07T22:42:51.893Z,22.90
2022-08-07T22:46:21.241Z,22.90
2022-08-07T22:48:55.614Z,23.00
2022-08-07T22:51:44.066Z,22.90
2022-08-07T22:55:17.068Z,23.00
2022-08-07T22:58:04.606Z,22.90
2022-08-07T23:00:45.835Z,22.80
2022-08-07T23:03:58.381Z,22.80
2022-08-07T23:06:50.599Z,22.70
2022-08-07T23:10:06.414Z,22.50
2022-08-07T23:12:34.181Z,22.60
2022-08-07T23:16:04.243Z,22.60
2022-08-07T23:18:19.089Z,22.70
2022-08-07T23:21:30.231Z,22.60
2022-08-07T23:24:24.148Z,22.50
2022-08-07T23:27:34.531Z,22.60
2022-08-07T23:30:38.281Z,22.50
2022-08-07T23:34:19.920Z,22.30
2022-08-07T23:36:35.659Z,22.40
2022-08-07T23:39:41.856Z,22.50
2022-08-07T23:42:45.826Z,22.50
2022-08-07T23:46:03.358Z,22.50
2022-08-07T23:48:52.211Z,22.30
2022-08-07T23:53:00.750Z,22.30
2022-08-07T23:54:52.054Z,22.30
2022-08-07T23:57:34.748Z,22.30
